sensor_id;sensor_type;location;lat;lon;timestamp;P1;durP1;ratioP1;P2;durP2;ratioP2
8036;SDS011;4061;51.360;7.340;2023-08-20T00:00:52;12.63;;;7.93;;
8036;SDS011;4061;51.360;7.340;2023-08-20T00:03:19;15.52;;;8.02;;
8036;SDS011;4061;51.360;7.340;2023-08-20T00:05:48;16.42;;;8.15;;
8036;SDS011;4061;51.360;7.340;2023-08-20T00:08:15;13.48;;;7.93;;
8036;SDS011;4061;51.360;7.340;2023-08-20T00:10:42;20.10;;;11.50;;
8036;SDS011;4061;51.360;7.340;2023-08-20T00:13:09;17.85;;;9.18;;
8036;SDS011;4061;51.360;7.340;2023-08-20T00:15:36;17.88;;;10.60;;
8036;SDS011;4061;51.360;7.340;2023-08-20T00:18:03;16.10;;;8.93;;
8036;SDS011;4061;51.360;7.340;2023-08-20T00:20:31;14.13;;;9.15;;
8036;SDS011;4061;51.360;7.340;2023-08-20T00:23:00;15.52;;;9.82;;
8036;SDS011;4061;51.360;7.340;2023-08-20T00:25:28;14.23;;;8.90;;
8036;SDS011;4061;51.360;7.340;2023-08-20T00:27:55;17.13;;;9.57;;
8036;SDS011;4061;51.360;7.340;2023-08-20T00:30:22;12.52;;;8.35;;
8036;SDS011;4061;51.360;7.340;2023-08-20T00:32:49;13.70;;;8.45;;
8036;SDS011;4061;51.360;7.340;2023-08-20T00:35:16;15.30;;;7.75;;
8036;SDS011;4061;51.360;7.340;2023-08-20T00:37:43;13.77;;;8.30;;
8036;SDS011;4061;51.360;7.340;2023-08-20T00:40:12;15.38;;;8.38;;
8036;SDS011;4061;51.360;7.340;2023-08-20T00:42:39;15.32;;;8.60;;
8036;SDS011;4061;51.360;7.340;2023-08-20T00:45:06;17.50;;;8.93;;
8036;SDS011;4061;51.360;7.340;2023-08-20T00:47:34;17.00;;;10.07;;
8036;SDS011;4061;51.360;7.340;2023-08-20T00:50:01;21.58;;;11.38;;
8036;SDS011;4061;51.360;7.340;2023-08-20T00:52:30;23.77;;;11.55;;
8036;SDS011;4061;51.360;7.340;2023-08-20T00:54:57;19.50;;;11.93;;
8036;SDS011;4061;51.360;7.340;2023-08-20T00:57:26;21.33;;;11.82;;
8036;SDS011;4061;51.360;7.340;2023-08-20T00:59:53;22.25;;;11.55;;
8036;SDS011;4061;51.360;7.340;2023-08-20T01:02:21;25.83;;;10.60;;
8036;SDS011;4061;51.360;7.340;2023-08-20T01:04:49;18.67;;;10.52;;
8036;SDS011;4061;51.360;7.340;2023-08-20T01:07:18;19.83;;;11.23;;
8036;SDS011;4061;51.360;7.340;2023-08-20T01:09:48;18.20;;;10.45;;
8036;SDS011;4061;51.360;7.340;2023-08-20T01:12:17;24.08;;;10.88;;
8036;SDS011;4061;51.360;7.340;2023-08-20T01:14:45;25.67;;;13.07;;
8036;SDS011;4061;51.360;7.340;2023-08-20T01:17:12;23.15;;;12.27;;
8036;SDS011;4061;51.360;7.340;2023-08-20T01:19:39;21.83;;;12.43;;
8036;SDS011;4061;51.360;7.340;2023-08-20T01:22:19;24.98;;;11.77;;
8036;SDS011;4061;51.360;7.340;2023-08-20T01:24:53;24.23;;;12.45;;
8036;SDS011;4061;51.360;7.340;2023-08-20T01:27:27;23.13;;;12.57;;
8036;SDS011;4061;51.360;7.340;2023-08-20T01:29:57;23.63;;;13.18;;
8036;SDS011;4061;51.360;7.340;2023-08-20T01:32:25;23.77;;;12.77;;
8036;SDS011;4061;51.360;7.340;2023-08-20T01:34:52;23.73;;;12.60;;
8036;SDS011;4061;51.360;7.340;2023-08-20T01:37:19;27.52;;;12.48;;
8036;SDS011;4061;51.360;7.340;2023-08-20T01:39:48;27.38;;;12.23;;
8036;SDS011;4061;51.360;7.340;2023-08-20T01:42:15;25.58;;;13.05;;
8036;SDS011;4061;51.360;7.340;2023-08-20T01:44:42;26.00;;;12.90;;
8036;SDS011;4061;51.360;7.340;2023-08-20T01:47:10;26.75;;;12.77;;
8036;SDS011;4061;51.360;7.340;2023-08-20T01:49:37;31.95;;;13.43;;
8036;SDS011;4061;51.360;7.340;2023-08-20T01:52:04;27.25;;;13.70;;
8036;SDS011;4061;51.360;7.340;2023-08-20T01:54:32;24.27;;;12.35;;
8036;SDS011;4061;51.360;7.340;2023-08-20T01:56:59;24.83;;;12.50;;
8036;SDS011;4061;51.360;7.340;2023-08-20T01:59:26;24.00;;;13.25;;
8036;SDS011;4061;51.360;7.340;2023-08-20T02:01:53;27.45;;;13.35;;
8036;SDS011;4061;51.360;7.340;2023-08-20T02:04:21;27.50;;;13.63;;
8036;SDS011;4061;51.360;7.340;2023-08-20T02:06:48;23.98;;;12.45;;
8036;SDS011;4061;51.360;7.340;2023-08-20T02:09:15;30.10;;;12.77;;
8036;SDS011;4061;51.360;7.340;2023-08-20T02:11:44;22.13;;;12.35;;
8036;SDS011;4061;51.360;7.340;2023-08-20T02:14:11;24.83;;;12.85;;
8036;SDS011;4061;51.360;7.340;2023-08-20T02:16:38;22.20;;;12.25;;
8036;SDS011;4061;51.360;7.340;2023-08-20T02:19:05;29.55;;;12.95;;
8036;SDS011;4061;51.360;7.340;2023-08-20T02:21:34;20.45;;;11.73;;
8036;SDS011;4061;51.360;7.340;2023-08-20T02:24:01;37.13;;;12.45;;
8036;SDS011;4061;51.360;7.340;2023-08-20T02:26:28;22.90;;;11.70;;
8036;SDS011;4061;51.360;7.340;2023-08-20T02:28:55;25.38;;;12.98;;
8036;SDS011;4061;51.360;7.340;2023-08-20T02:31:22;23.75;;;12.13;;
8036;SDS011;4061;51.360;7.340;2023-08-20T02:33:49;27.13;;;13.02;;
8036;SDS011;4061;51.360;7.340;2023-08-20T02:36:16;24.67;;;12.02;;
8036;SDS011;4061;51.360;7.340;2023-08-20T02:38:45;23.20;;;11.85;;
8036;SDS011;4061;51.360;7.340;2023-08-20T02:41:12;24.20;;;11.82;;
8036;SDS011;4061;51.360;7.340;2023-08-20T02:43:39;32.58;;;14.10;;
8036;SDS011;4061;51.360;7.340;2023-08-20T02:46:06;34.95;;;14.48;;
8036;SDS011;4061;51.360;7.340;2023-08-20T02:48:33;34.10;;;14.63;;
8036;SDS011;4061;51.360;7.340;2023-08-20T02:51:00;29.35;;;14.60;;
8036;SDS011;4061;51.360;7.340;2023-08-20T02:53:28;31.13;;;13.93;;
8036;SDS011;4061;51.360;7.340;2023-08-20T02:55:56;26.90;;;14.05;;
8036;SDS011;4061;51.360;7.340;2023-08-20T02:58:23;25.35;;;13.90;;
8036;SDS011;4061;51.360;7.340;2023-08-20T03:00:50;29.27;;;13.60;;
8036;SDS011;4061;51.360;7.340;2023-08-20T03:03:18;27.08;;;12.90;;
8036;SDS011;4061;51.360;7.340;2023-08-20T03:05:45;28.60;;;13.38;;
8036;SDS011;4061;51.360;7.340;2023-08-20T03:08:12;29.90;;;12.18;;
8036;SDS011;4061;51.360;7.340;2023-08-20T03:10:39;23.55;;;12.57;;
8036;SDS011;4061;51.360;7.340;2023-08-20T03:13:07;27.92;;;13.73;;
8036;SDS011;4061;51.360;7.340;2023-08-20T03:15:34;27.40;;;13.15;;
8036;SDS011;4061;51.360;7.340;2023-08-20T03:18:02;33.78;;;13.55;;
8036;SDS011;4061;51.360;7.340;2023-08-20T03:20:29;30.42;;;14.27;;
8036;SDS011;4061;51.360;7.340;2023-08-20T03:22:57;26.08;;;13.93;;
8036;SDS011;4061;51.360;7.340;2023-08-20T03:25:24;27.75;;;13.10;;
8036;SDS011;4061;51.360;7.340;2023-08-20T03:27:51;28.60;;;14.70;;
8036;SDS011;4061;51.360;7.340;2023-08-20T03:30:20;31.17;;;13.38;;
8036;SDS011;4061;51.360;7.340;2023-08-20T03:32:47;18.38;;;10.75;;
8036;SDS011;4061;51.360;7.340;2023-08-20T03:35:14;21.50;;;12.38;;
8036;SDS011;4061;51.360;7.340;2023-08-20T03:37:41;25.75;;;13.68;;
8036;SDS011;4061;51.360;7.340;2023-08-20T03:40:08;23.75;;;12.52;;
8036;SDS011;4061;51.360;7.340;2023-08-20T03:42:36;25.20;;;11.73;;
8036;SDS011;4061;51.360;7.340;2023-08-20T03:45:03;24.08;;;11.80;;
8036;SDS011;4061;51.360;7.340;2023-08-20T03:47:31;20.20;;;10.98;;
8036;SDS011;4061;51.360;7.340;2023-08-20T03:49:58;27.88;;;12.55;;
8036;SDS011;4061;51.360;7.340;2023-08-20T03:52:25;22.85;;;11.32;;
8036;SDS011;4061;51.360;7.340;2023-08-20T03:54:52;19.83;;;11.02;;
8036;SDS011;4061;51.360;7.340;2023-08-20T03:57:19;21.83;;;11.32;;
8036;SDS011;4061;51.360;7.340;2023-08-20T03:59:47;20.08;;;10.40;;
8036;SDS011;4061;51.360;7.340;2023-08-20T04:02:14;21.73;;;10.18;;
8036;SDS011;4061;51.360;7.340;2023-08-20T04:04:43;17.35;;;10.63;;
8036;SDS011;4061;51.360;7.340;2023-08-20T04:07:10;18.88;;;10.07;;
8036;SDS011;4061;51.360;7.340;2023-08-20T04:09:37;27.42;;;11.65;;
8036;SDS011;4061;51.360;7.340;2023-08-20T04:12:05;18.48;;;10.18;;
8036;SDS011;4061;51.360;7.340;2023-08-20T04:14:32;24.45;;;11.05;;
8036;SDS011;4061;51.360;7.340;2023-08-20T04:16:59;21.30;;;9.75;;
8036;SDS011;4061;51.360;7.340;2023-08-20T04:19:27;20.00;;;10.75;;
8036;SDS011;4061;51.360;7.340;2023-08-20T04:21:55;21.25;;;10.57;;
8036;SDS011;4061;51.360;7.340;2023-08-20T04:24:22;19.67;;;11.65;;
8036;SDS011;4061;51.360;7.340;2023-08-20T04:26:49;18.55;;;10.50;;
8036;SDS011;4061;51.360;7.340;2023-08-20T04:29:16;21.42;;;11.13;;
8036;SDS011;4061;51.360;7.340;2023-08-20T04:31:44;15.73;;;10.13;;
8036;SDS011;4061;51.360;7.340;2023-08-20T04:34:11;21.25;;;10.25;;
8036;SDS011;4061;51.360;7.340;2023-08-20T04:36:38;16.83;;;9.55;;
8036;SDS011;4061;51.360;7.340;2023-08-20T04:39:06;17.95;;;8.48;;
8036;SDS011;4061;51.360;7.340;2023-08-20T04:41:33;20.30;;;9.80;;
8036;SDS011;4061;51.360;7.340;2023-08-20T04:44:00;13.98;;;8.40;;
8036;SDS011;4061;51.360;7.340;2023-08-20T04:46:27;18.58;;;9.27;;
8036;SDS011;4061;51.360;7.340;2023-08-20T04:48:54;12.68;;;8.48;;
8036;SDS011;4061;51.360;7.340;2023-08-20T04:51:22;19.70;;;9.45;;
8036;SDS011;4061;51.360;7.340;2023-08-20T04:53:49;19.73;;;9.45;;
8036;SDS011;4061;51.360;7.340;2023-08-20T04:56:17;21.48;;;9.27;;
8036;SDS011;4061;51.360;7.340;2023-08-20T04:58:44;53.47;;;12.73;;
8036;SDS011;4061;51.360;7.340;2023-08-20T05:01:11;33.75;;;11.27;;
8036;SDS011;4061;51.360;7.340;2023-08-20T05:03:38;52.22;;;13.27;;
8036;SDS011;4061;51.360;7.340;2023-08-20T05:06:05;27.58;;;11.40;;
8036;SDS011;4061;51.360;7.340;2023-08-20T05:08:32;31.50;;;12.20;;
8036;SDS011;4061;51.360;7.340;2023-08-20T05:10:59;29.17;;;13.30;;
8036;SDS011;4061;51.360;7.340;2023-08-20T05:13:29;26.40;;;12.57;;
8036;SDS011;4061;51.360;7.340;2023-08-20T05:15:56;25.67;;;13.18;;
8036;SDS011;4061;51.360;7.340;2023-08-20T05:18:23;26.45;;;12.10;;
8036;SDS011;4061;51.360;7.340;2023-08-20T05:20:51;26.60;;;11.60;;
8036;SDS011;4061;51.360;7.340;2023-08-20T05:23:18;21.05;;;10.85;;
8036;SDS011;4061;51.360;7.340;2023-08-20T05:25:46;18.08;;;10.25;;
8036;SDS011;4061;51.360;7.340;2023-08-20T05:28:13;22.38;;;9.75;;
8036;SDS011;4061;51.360;7.340;2023-08-20T05:30:41;39.35;;;10.73;;
8036;SDS011;4061;51.360;7.340;2023-08-20T05:33:08;52.60;;;9.20;;
8036;SDS011;4061;51.360;7.340;2023-08-20T05:35:35;36.78;;;9.32;;
8036;SDS011;4061;51.360;7.340;2023-08-20T05:38:02;48.25;;;9.68;;
8036;SDS011;4061;51.360;7.340;2023-08-20T05:40:29;31.08;;;9.85;;
8036;SDS011;4061;51.360;7.340;2023-08-20T05:42:56;25.15;;;9.77;;
8036;SDS011;4061;51.360;7.340;2023-08-20T05:45:23;33.13;;;9.48;;
8036;SDS011;4061;51.360;7.340;2023-08-20T05:47:51;14.20;;;8.73;;
8036;SDS011;4061;51.360;7.340;2023-08-20T05:50:18;14.90;;;9.40;;
8036;SDS011;4061;51.360;7.340;2023-08-20T05:52:45;14.93;;;9.13;;
8036;SDS011;4061;51.360;7.340;2023-08-20T05:55:13;14.60;;;9.20;;
8036;SDS011;4061;51.360;7.340;2023-08-20T05:57:40;11.60;;;7.25;;
8036;SDS011;4061;51.360;7.340;2023-08-20T06:00:08;15.88;;;8.68;;
8036;SDS011;4061;51.360;7.340;2023-08-20T06:02:35;13.63;;;8.82;;
8036;SDS011;4061;51.360;7.340;2023-08-20T06:05:04;14.57;;;9.23;;
8036;SDS011;4061;51.360;7.340;2023-08-20T06:07:31;14.80;;;8.45;;
8036;SDS011;4061;51.360;7.340;2023-08-20T06:09:58;19.13;;;8.85;;
8036;SDS011;4061;51.360;7.340;2023-08-20T06:12:25;13.65;;;8.82;;
8036;SDS011;4061;51.360;7.340;2023-08-20T06:14:52;13.80;;;9.02;;
8036;SDS011;4061;51.360;7.340;2023-08-20T06:17:19;16.00;;;9.45;;
8036;SDS011;4061;51.360;7.340;2023-08-20T06:19:46;16.77;;;8.82;;
8036;SDS011;4061;51.360;7.340;2023-08-20T06:22:14;14.43;;;9.02;;
8036;SDS011;4061;51.360;7.340;2023-08-20T06:24:41;16.17;;;9.13;;
8036;SDS011;4061;51.360;7.340;2023-08-20T06:27:08;13.55;;;8.90;;
8036;SDS011;4061;51.360;7.340;2023-08-20T06:29:35;13.85;;;8.80;;
8036;SDS011;4061;51.360;7.340;2023-08-20T06:32:04;13.48;;;8.50;;
8036;SDS011;4061;51.360;7.340;2023-08-20T06:34:31;16.77;;;8.00;;
8036;SDS011;4061;51.360;7.340;2023-08-20T06:36:58;12.45;;;8.27;;
8036;SDS011;4061;51.360;7.340;2023-08-20T06:39:26;13.95;;;8.70;;
8036;SDS011;4061;51.360;7.340;2023-08-20T06:41:53;14.73;;;8.48;;
8036;SDS011;4061;51.360;7.340;2023-08-20T06:44:20;18.08;;;8.68;;
8036;SDS011;4061;51.360;7.340;2023-08-20T06:46:47;16.45;;;9.05;;
8036;SDS011;4061;51.360;7.340;2023-08-20T06:49:14;14.90;;;7.85;;
8036;SDS011;4061;51.360;7.340;2023-08-20T06:51:41;15.98;;;7.75;;
8036;SDS011;4061;51.360;7.340;2023-08-20T06:54:08;9.85;;;6.85;;
8036;SDS011;4061;51.360;7.340;2023-08-20T06:56:37;15.10;;;8.30;;
8036;SDS011;4061;51.360;7.340;2023-08-20T06:59:04;13.50;;;8.07;;
8036;SDS011;4061;51.360;7.340;2023-08-20T07:01:31;11.95;;;8.07;;
8036;SDS011;4061;51.360;7.340;2023-08-20T07:03:58;11.27;;;8.00;;
8036;SDS011;4061;51.360;7.340;2023-08-20T07:06:25;13.00;;;7.82;;
8036;SDS011;4061;51.360;7.340;2023-08-20T07:08:52;12.32;;;7.80;;
8036;SDS011;4061;51.360;7.340;2023-08-20T07:11:19;10.55;;;7.07;;
8036;SDS011;4061;51.360;7.340;2023-08-20T07:13:48;13.98;;;7.50;;
8036;SDS011;4061;51.360;7.340;2023-08-20T07:16:15;11.55;;;6.55;;
8036;SDS011;4061;51.360;7.340;2023-08-20T07:18:42;10.93;;;7.50;;
8036;SDS011;4061;51.360;7.340;2023-08-20T07:21:09;11.18;;;7.10;;
8036;SDS011;4061;51.360;7.340;2023-08-20T07:23:36;13.32;;;6.70;;
8036;SDS011;4061;51.360;7.340;2023-08-20T07:26:06;8.07;;;5.72;;
8036;SDS011;4061;51.360;7.340;2023-08-20T07:28:34;13.05;;;7.50;;
8036;SDS011;4061;51.360;7.340;2023-08-20T07:31:20;14.93;;;8.35;;
8036;SDS011;4061;51.360;7.340;2023-08-20T07:33:47;16.20;;;8.48;;
8036;SDS011;4061;51.360;7.340;2023-08-20T07:36:14;17.02;;;8.95;;
8036;SDS011;4061;51.360;7.340;2023-08-20T07:38:41;16.63;;;9.25;;
8036;SDS011;4061;51.360;7.340;2023-08-20T07:41:08;15.02;;;9.50;;
8036;SDS011;4061;51.360;7.340;2023-08-20T07:43:36;17.13;;;8.60;;
8036;SDS011;4061;51.360;7.340;2023-08-20T07:46:04;15.90;;;10.02;;
8036;SDS011;4061;51.360;7.340;2023-08-20T07:48:32;13.27;;;8.30;;
8036;SDS011;4061;51.360;7.340;2023-08-20T07:51:00;11.10;;;7.22;;
8036;SDS011;4061;51.360;7.340;2023-08-20T07:53:27;17.50;;;8.90;;
8036;SDS011;4061;51.360;7.340;2023-08-20T07:55:54;13.25;;;7.95;;
8036;SDS011;4061;51.360;7.340;2023-08-20T07:58:22;12.85;;;8.20;;
8036;SDS011;4061;51.360;7.340;2023-08-20T08:00:49;10.50;;;7.18;;
8036;SDS011;4061;51.360;7.340;2023-08-20T08:03:16;12.85;;;8.25;;
8036;SDS011;4061;51.360;7.340;2023-08-20T08:05:47;13.02;;;7.78;;
8036;SDS011;4061;51.360;7.340;2023-08-20T08:08:14;14.60;;;7.45;;
8036;SDS011;4061;51.360;7.340;2023-08-20T08:10:41;9.95;;;6.80;;
8036;SDS011;4061;51.360;7.340;2023-08-20T08:13:10;14.77;;;6.40;;
8036;SDS011;4061;51.360;7.340;2023-08-20T08:15:37;9.88;;;6.38;;
8036;SDS011;4061;51.360;7.340;2023-08-20T08:18:04;7.93;;;5.15;;
8036;SDS011;4061;51.360;7.340;2023-08-20T08:20:31;9.85;;;4.70;;
8036;SDS011;4061;51.360;7.340;2023-08-20T08:23:00;5.85;;;4.50;;
8036;SDS011;4061;51.360;7.340;2023-08-20T08:25:27;5.97;;;3.42;;
8036;SDS011;4061;51.360;7.340;2023-08-20T08:27:54;4.55;;;3.88;;
8036;SDS011;4061;51.360;7.340;2023-08-20T08:30:22;4.38;;;3.97;;
8036;SDS011;4061;51.360;7.340;2023-08-20T08:32:49;10.23;;;3.85;;
8036;SDS011;4061;51.360;7.340;2023-08-20T08:35:16;4.45;;;3.53;;
8036;SDS011;4061;51.360;7.340;2023-08-20T08:37:43;8.07;;;4.32;;
8036;SDS011;4061;51.360;7.340;2023-08-20T08:40:12;6.22;;;3.47;;
8036;SDS011;4061;51.360;7.340;2023-08-20T08:42:40;3.97;;;3.63;;
8036;SDS011;4061;51.360;7.340;2023-08-20T08:45:07;4.47;;;3.83;;
8036;SDS011;4061;51.360;7.340;2023-08-20T08:47:35;7.93;;;3.75;;
8036;SDS011;4061;51.360;7.340;2023-08-20T08:50:03;4.05;;;3.53;;
8036;SDS011;4061;51.360;7.340;2023-08-20T08:52:30;3.63;;;3.17;;
8036;SDS011;4061;51.360;7.340;2023-08-20T08:54:58;4.28;;;3.63;;
8036;SDS011;4061;51.360;7.340;2023-08-20T08:57:26;8.15;;;3.63;;
8036;SDS011;4061;51.360;7.340;2023-08-20T08:59:53;5.38;;;2.65;;
8036;SDS011;4061;51.360;7.340;2023-08-20T09:02:20;4.43;;;3.53;;
8036;SDS011;4061;51.360;7.340;2023-08-20T09:04:48;6.05;;;3.42;;
8036;SDS011;4061;51.360;7.340;2023-08-20T09:07:15;4.03;;;3.30;;
8036;SDS011;4061;51.360;7.340;2023-08-20T09:09:42;4.35;;;2.90;;
8036;SDS011;4061;51.360;7.340;2023-08-20T09:12:13;4.18;;;2.95;;
8036;SDS011;4061;51.360;7.340;2023-08-20T09:14:43;7.45;;;3.13;;
8036;SDS011;4061;51.360;7.340;2023-08-20T09:17:10;7.25;;;2.72;;
8036;SDS011;4061;51.360;7.340;2023-08-20T09:19:38;6.05;;;2.95;;
8036;SDS011;4061;51.360;7.340;2023-08-20T09:22:05;5.75;;;3.25;;
8036;SDS011;4061;51.360;7.340;2023-08-20T09:24:32;3.45;;;3.00;;
8036;SDS011;4061;51.360;7.340;2023-08-20T09:27:01;5.68;;;2.80;;
8036;SDS011;4061;51.360;7.340;2023-08-20T09:29:31;4.63;;;3.28;;
8036;SDS011;4061;51.360;7.340;2023-08-20T09:32:01;5.60;;;3.00;;
8036;SDS011;4061;51.360;7.340;2023-08-20T09:34:35;3.97;;;3.45;;
8036;SDS011;4061;51.360;7.340;2023-08-20T09:37:03;5.57;;;3.80;;
8036;SDS011;4061;51.360;7.340;2023-08-20T09:39:30;4.72;;;3.10;;
8036;SDS011;4061;51.360;7.340;2023-08-20T09:41:57;3.88;;;3.05;;
8036;SDS011;4061;51.360;7.340;2023-08-20T09:44:25;3.40;;;3.00;;
8036;SDS011;4061;51.360;7.340;2023-08-20T09:46:53;3.33;;;3.05;;
8036;SDS011;4061;51.360;7.340;2023-08-20T09:49:22;7.43;;;3.05;;
8036;SDS011;4061;51.360;7.340;2023-08-20T09:51:50;4.78;;;2.80;;
8036;SDS011;4061;51.360;7.340;2023-08-20T09:54:21;4.43;;;3.00;;
8036;SDS011;4061;51.360;7.340;2023-08-20T09:56:53;3.00;;;2.67;;
8036;SDS011;4061;51.360;7.340;2023-08-20T09:59:21;4.22;;;2.78;;
8036;SDS011;4061;51.360;7.340;2023-08-20T10:01:48;5.88;;;2.85;;
8036;SDS011;4061;51.360;7.340;2023-08-20T10:04:15;4.30;;;3.05;;
8036;SDS011;4061;51.360;7.340;2023-08-20T10:06:45;4.63;;;3.25;;
8036;SDS011;4061;51.360;7.340;2023-08-20T10:09:13;3.13;;;2.53;;
8036;SDS011;4061;51.360;7.340;2023-08-20T10:11:40;3.45;;;3.20;;
8036;SDS011;4061;51.360;7.340;2023-08-20T10:14:08;5.25;;;3.15;;
8036;SDS011;4061;51.360;7.340;2023-08-20T10:16:35;3.35;;;2.45;;
8036;SDS011;4061;51.360;7.340;2023-08-20T10:19:02;3.42;;;2.72;;
8036;SDS011;4061;51.360;7.340;2023-08-20T10:21:30;2.88;;;2.38;;
8036;SDS011;4061;51.360;7.340;2023-08-20T10:23:58;2.92;;;2.63;;
8036;SDS011;4061;51.360;7.340;2023-08-20T10:26:29;3.28;;;2.65;;
8036;SDS011;4061;51.360;7.340;2023-08-20T10:31:45;2.47;;;2.25;;
8036;SDS011;4061;51.360;7.340;2023-08-20T10:34:12;5.63;;;2.60;;
8036;SDS011;4061;51.360;7.340;2023-08-20T10:37:00;2.75;;;2.50;;
8036;SDS011;4061;51.360;7.340;2023-08-20T10:39:29;2.78;;;2.03;;
8036;SDS011;4061;51.360;7.340;2023-08-20T10:42:09;3.17;;;2.00;;
8036;SDS011;4061;51.360;7.340;2023-08-20T10:47:22;1.90;;;1.80;;
8036;SDS011;4061;51.360;7.340;2023-08-20T10:49:50;2.00;;;1.90;;
8036;SDS011;4061;51.360;7.340;2023-08-20T10:52:17;1.70;;;1.60;;
8036;SDS011;4061;51.360;7.340;2023-08-20T10:54:46;2.13;;;1.90;;
8036;SDS011;4061;51.360;7.340;2023-08-20T10:57:16;7.03;;;2.40;;
8036;SDS011;4061;51.360;7.340;2023-08-20T10:59:47;3.00;;;2.30;;
8036;SDS011;4061;51.360;7.340;2023-08-20T11:02:22;4.22;;;2.50;;
8036;SDS011;4061;51.360;7.340;2023-08-20T11:04:49;2.25;;;2.15;;
8036;SDS011;4061;51.360;7.340;2023-08-20T11:07:17;3.50;;;2.63;;
8036;SDS011;4061;51.360;7.340;2023-08-20T11:09:45;2.28;;;2.17;;
8036;SDS011;4061;51.360;7.340;2023-08-20T11:12:14;2.50;;;2.38;;
8036;SDS011;4061;51.360;7.340;2023-08-20T11:14:41;3.03;;;2.10;;
8036;SDS011;4061;51.360;7.340;2023-08-20T11:17:08;3.15;;;2.20;;
8036;SDS011;4061;51.360;7.340;2023-08-20T11:19:35;2.28;;;2.10;;
8036;SDS011;4061;51.360;7.340;2023-08-20T11:22:02;4.20;;;1.98;;
8036;SDS011;4061;51.360;7.340;2023-08-20T11:24:29;5.00;;;2.30;;
8036;SDS011;4061;51.360;7.340;2023-08-20T11:26:58;4.80;;;2.35;;
8036;SDS011;4061;51.360;7.340;2023-08-20T11:29:25;2.28;;;2.17;;
8036;SDS011;4061;51.360;7.340;2023-08-20T11:31:53;2.78;;;2.58;;
8036;SDS011;4061;51.360;7.340;2023-08-20T11:34:20;2.55;;;2.30;;
8036;SDS011;4061;51.360;7.340;2023-08-20T11:36:47;3.97;;;2.38;;
8036;SDS011;4061;51.360;7.340;2023-08-20T11:39:15;3.10;;;2.90;;
8036;SDS011;4061;51.360;7.340;2023-08-20T11:41:43;2.70;;;2.33;;
8036;SDS011;4061;51.360;7.340;2023-08-20T11:44:18;2.88;;;2.47;;
8036;SDS011;4061;51.360;7.340;2023-08-20T11:46:46;2.50;;;2.30;;
8036;SDS011;4061;51.360;7.340;2023-08-20T11:49:13;2.65;;;2.42;;
8036;SDS011;4061;51.360;7.340;2023-08-20T11:51:41;2.65;;;2.45;;
8036;SDS011;4061;51.360;7.340;2023-08-20T11:54:09;3.78;;;2.40;;
8036;SDS011;4061;51.360;7.340;2023-08-20T11:56:43;3.28;;;2.60;;
8036;SDS011;4061;51.360;7.340;2023-08-20T11:59:11;3.42;;;3.13;;
8036;SDS011;4061;51.360;7.340;2023-08-20T12:01:39;5.07;;;2.85;;
8036;SDS011;4061;51.360;7.340;2023-08-20T12:04:07;6.65;;;2.90;;
8036;SDS011;4061;51.360;7.340;2023-08-20T12:06:34;7.75;;;2.83;;
8036;SDS011;4061;51.360;7.340;2023-08-20T12:09:01;3.55;;;2.90;;
8036;SDS011;4061;51.360;7.340;2023-08-20T12:11:29;5.43;;;3.60;;
8036;SDS011;4061;51.360;7.340;2023-08-20T12:13:58;4.65;;;3.25;;
8036;SDS011;4061;51.360;7.340;2023-08-20T12:16:27;3.83;;;3.53;;
8036;SDS011;4061;51.360;7.340;2023-08-20T12:18:54;4.50;;;3.92;;
8036;SDS011;4061;51.360;7.340;2023-08-20T12:21:21;3.22;;;2.95;;
8036;SDS011;4061;51.360;7.340;2023-08-20T12:23:49;4.07;;;3.72;;
8036;SDS011;4061;51.360;7.340;2023-08-20T12:26:16;3.83;;;3.15;;
8036;SDS011;4061;51.360;7.340;2023-08-20T12:28:43;3.20;;;3.00;;
8036;SDS011;4061;51.360;7.340;2023-08-20T12:31:10;6.85;;;3.75;;
8036;SDS011;4061;51.360;7.340;2023-08-20T12:33:38;4.70;;;3.40;;
8036;SDS011;4061;51.360;7.340;2023-08-20T12:36:05;3.72;;;3.00;;
8036;SDS011;4061;51.360;7.340;2023-08-20T12:38:32;7.47;;;3.97;;
8036;SDS011;4061;51.360;7.340;2023-08-20T12:41:00;5.07;;;4.32;;
8036;SDS011;4061;51.360;7.340;2023-08-20T12:43:28;4.57;;;4.03;;
8036;SDS011;4061;51.360;7.340;2023-08-20T12:45:55;4.75;;;4.30;;
8036;SDS011;4061;51.360;7.340;2023-08-20T12:48:23;10.40;;;4.68;;
8036;SDS011;4061;51.360;7.340;2023-08-20T12:50:51;6.32;;;4.72;;
8036;SDS011;4061;51.360;7.340;2023-08-20T12:53:18;6.57;;;4.38;;
8036;SDS011;4061;51.360;7.340;2023-08-20T12:55:46;6.82;;;4.85;;
8036;SDS011;4061;51.360;7.340;2023-08-20T12:58:13;8.43;;;4.45;;
8036;SDS011;4061;51.360;7.340;2023-08-20T13:00:40;6.43;;;4.40;;
8036;SDS011;4061;51.360;7.340;2023-08-20T13:03:07;7.70;;;4.65;;
8036;SDS011;4061;51.360;7.340;2023-08-20T13:05:35;4.10;;;3.78;;
8036;SDS011;4061;51.360;7.340;2023-08-20T13:08:04;4.85;;;4.13;;
8036;SDS011;4061;51.360;7.340;2023-08-20T13:10:31;7.50;;;4.28;;
8036;SDS011;4061;51.360;7.340;2023-08-20T13:12:59;9.35;;;4.82;;
8036;SDS011;4061;51.360;7.340;2023-08-20T13:15:27;5.68;;;5.05;;
8036;SDS011;4061;51.360;7.340;2023-08-20T13:17:54;7.38;;;5.32;;
8036;SDS011;4061;51.360;7.340;2023-08-20T13:20:21;11.48;;;6.20;;
8036;SDS011;4061;51.360;7.340;2023-08-20T13:22:50;9.95;;;6.88;;
8036;SDS011;4061;51.360;7.340;2023-08-20T13:25:19;7.88;;;6.97;;
8036;SDS011;4061;51.360;7.340;2023-08-20T13:27:46;8.73;;;6.28;;
8036;SDS011;4061;51.360;7.340;2023-08-20T13:30:13;8.73;;;7.00;;
8036;SDS011;4061;51.360;7.340;2023-08-20T13:32:40;11.63;;;6.78;;
8036;SDS011;4061;51.360;7.340;2023-08-20T13:35:07;7.40;;;6.05;;
8036;SDS011;4061;51.360;7.340;2023-08-20T13:37:34;8.73;;;7.13;;
8036;SDS011;4061;51.360;7.340;2023-08-20T13:40:02;7.70;;;6.28;;
8036;SDS011;4061;51.360;7.340;2023-08-20T13:42:31;7.03;;;6.00;;
8036;SDS011;4061;51.360;7.340;2023-08-20T13:44:58;11.07;;;8.35;;
8036;SDS011;4061;51.360;7.340;2023-08-20T13:47:25;11.98;;;8.25;;
8036;SDS011;4061;51.360;7.340;2023-08-20T13:49:52;7.68;;;6.82;;
8036;SDS011;4061;51.360;7.340;2023-08-20T13:52:19;8.63;;;6.38;;
8036;SDS011;4061;51.360;7.340;2023-08-20T13:54:46;10.70;;;6.47;;
8036;SDS011;4061;51.360;7.340;2023-08-20T13:57:13;6.93;;;6.22;;
8036;SDS011;4061;51.360;7.340;2023-08-20T13:59:42;8.75;;;5.88;;
8036;SDS011;4061;51.360;7.340;2023-08-20T14:02:09;6.75;;;5.93;;
8036;SDS011;4061;51.360;7.340;2023-08-20T14:04:36;10.00;;;5.88;;
8036;SDS011;4061;51.360;7.340;2023-08-20T14:07:03;8.70;;;5.72;;
8036;SDS011;4061;51.360;7.340;2023-08-20T14:09:30;11.70;;;6.90;;
8036;SDS011;4061;51.360;7.340;2023-08-20T14:11:59;11.10;;;6.32;;
8036;SDS011;4061;51.360;7.340;2023-08-20T14:14:26;10.50;;;6.47;;
8036;SDS011;4061;51.360;7.340;2023-08-20T14:16:55;7.15;;;5.95;;
8036;SDS011;4061;51.360;7.340;2023-08-20T14:19:22;15.45;;;7.20;;
8036;SDS011;4061;51.360;7.340;2023-08-20T14:21:49;9.32;;;6.05;;
8036;SDS011;4061;51.360;7.340;2023-08-20T14:24:16;9.18;;;6.78;;
8036;SDS011;4061;51.360;7.340;2023-08-20T14:26:43;6.95;;;5.55;;
8036;SDS011;4061;51.360;7.340;2023-08-20T14:29:11;7.57;;;6.00;;
8036;SDS011;4061;51.360;7.340;2023-08-20T14:31:38;6.85;;;5.85;;
8036;SDS011;4061;51.360;7.340;2023-08-20T14:34:06;10.63;;;6.22;;
8036;SDS011;4061;51.360;7.340;2023-08-20T14:36:33;9.45;;;6.00;;
8036;SDS011;4061;51.360;7.340;2023-08-20T14:39:00;7.32;;;6.43;;
8036;SDS011;4061;51.360;7.340;2023-08-20T14:41:29;6.10;;;5.50;;
8036;SDS011;4061;51.360;7.340;2023-08-20T14:43:56;11.05;;;5.43;;
8036;SDS011;4061;51.360;7.340;2023-08-20T14:46:23;9.40;;;5.97;;
8036;SDS011;4061;51.360;7.340;2023-08-20T14:48:51;13.88;;;5.97;;
8036;SDS011;4061;51.360;7.340;2023-08-20T14:51:21;7.72;;;5.25;;
8036;SDS011;4061;51.360;7.340;2023-08-20T14:53:48;5.55;;;5.05;;
8036;SDS011;4061;51.360;7.340;2023-08-20T14:56:15;6.43;;;5.80;;
8036;SDS011;4061;51.360;7.340;2023-08-20T14:58:42;10.90;;;5.97;;
8036;SDS011;4061;51.360;7.340;2023-08-20T15:01:09;5.55;;;5.05;;
8036;SDS011;4061;51.360;7.340;2023-08-20T15:03:37;5.70;;;5.05;;
8036;SDS011;4061;51.360;7.340;2023-08-20T15:06:05;7.28;;;5.22;;
8036;SDS011;4061;51.360;7.340;2023-08-20T15:08:33;6.60;;;5.40;;
8036;SDS011;4061;51.360;7.340;2023-08-20T15:11:00;5.95;;;5.07;;